createdAt,value
2023-05-11T00:03:45.432Z,11.18
2023-05-11T00:08:47.734Z,10.05
2023-05-11T00:13:50.000Z,11.50
2023-05-11T00:18:52.317Z,10.40
2023-05-11T00:23:54.939Z,9.82
2023-05-11T00:28:57.204Z,15.63
2023-05-11T00:33:59.525Z,14.80
2023-05-11T00:39:01.893Z,12.88
2023-05-11T00:44:04.362Z,10.00
2023-05-11T00:49:07.456Z,14.75
2023-05-11T00:54:15.646Z,13.65
2023-05-11T00:59:18.026Z,14.73
2023-05-11T01:04:21.155Z,12.40
2023-05-11T01:09:41.929Z,13.65
2023-05-11T01:15:01.341Z,11.63
2023-05-11T01:20:07.815Z,13.32
2023-05-11T01:25:13.126Z,15.88
2023-05-11T01:30:18.235Z,11.60
2023-05-11T01:35:23.497Z,15.23
2023-05-11T01:40:29.909Z,11.05
2023-05-11T01:45:34.804Z,14.13
2023-05-11T01:50:38.135Z,10.93
2023-05-11T01:55:42.347Z,14.80
2023-05-11T02:00:45.923Z,12.98
2023-05-11T02:05:49.993Z,12.40
2023-05-11T02:10:55.140Z,11.63
2023-05-11T02:15:59.141Z,17.20
2023-05-11T02:21:03.481Z,12.60
2023-05-11T02:26:07.131Z,18.15
2023-05-11T02:31:18.091Z,15.60
2023-05-11T02:36:23.314Z,13.05
2023-05-11T02:41:30.056Z,17.45
2023-05-11T02:46:36.084Z,17.60
2023-05-11T02:51:41.677Z,19.65
2023-05-11T02:56:45.360Z,9.23
2023-05-11T03:01:48.544Z,26.35
2023-05-11T03:06:51.160Z,19.65
2023-05-11T03:11:53.502Z,15.20
2023-05-11T03:16:57.740Z,19.08
2023-05-11T03:22:01.424Z,26.17
2023-05-11T03:27:06.373Z,15.77
2023-05-11T03:32:09.974Z,23.50
2023-05-11T03:37:14.198Z,21.40
2023-05-11T03:42:18.161Z,15.55
2023-05-11T03:47:21.570Z,16.23
2023-05-11T03:52:24.295Z,18.60
2023-05-11T03:57:26.933Z,20.27
2023-05-11T04:02:29.232Z,14.93
2023-05-11T04:07:33.330Z,23.30
2023-05-11T04:12:35.566Z,18.52
2023-05-11T04:17:37.823Z,14.57
2023-05-11T04:22:40.040Z,21.33
2023-05-11T04:27:42.306Z,13.43
2023-05-11T04:32:44.547Z,13.65
2023-05-11T04:37:46.849Z,11.55
2023-05-11T04:42:49.101Z,18.40
2023-05-11T04:47:52.084Z,17.63
2023-05-11T04:52:54.299Z,17.55
2023-05-11T04:57:56.615Z,13.45
2023-05-11T05:02:58.874Z,17.35
2023-05-11T05:08:01.222Z,10.63
2023-05-11T05:13:03.450Z,9.63
2023-05-11T05:18:05.742Z,8.88
2023-05-11T05:23:07.962Z,10.55
2023-05-11T05:28:10.113Z,9.27
2023-05-11T05:33:12.636Z,9.00
2023-05-11T05:38:14.833Z,16.63
2023-05-11T05:43:17.049Z,15.30
2023-05-11T05:48:19.244Z,10.98
2023-05-11T05:53:21.485Z,14.98
2023-05-11T05:58:23.733Z,19.30
2023-05-11T06:03:28.432Z,14.25
2023-05-11T06:08:31.510Z,7.30
2023-05-11T06:13:33.660Z,7.10
2023-05-11T06:18:35.984Z,5.32
2023-05-11T06:23:38.227Z,8.95
2023-05-11T06:28:40.512Z,4.57
2023-05-11T06:33:43.455Z,4.30
2023-05-11T06:38:45.704Z,7.63
2023-05-11T06:43:47.927Z,3.95
2023-05-11T06:48:50.766Z,6.07
2023-05-11T06:53:53.050Z,7.97
2023-05-11T06:58:55.234Z,5.78
2023-05-11T07:03:57.500Z,5.72
2023-05-11T07:08:59.717Z,4.13
2023-05-11T07:14:01.930Z,5.22
2023-05-11T07:19:05.537Z,2.58
2023-05-11T07:24:07.998Z,5.88
2023-05-11T07:29:10.256Z,3.15
2023-05-11T07:34:12.485Z,4.45
2023-05-11T07:39:17.364Z,8.30
2023-05-11T07:44:19.677Z,5.40
2023-05-11T07:49:28.181Z,5.55
2023-05-11T07:54:33.425Z,5.20
2023-05-11T07:59:35.734Z,10.48
2023-05-11T08:04:38.392Z,3.10
2023-05-11T08:09:40.650Z,9.98
2023-05-11T08:14:43.668Z,4.70
2023-05-11T08:19:46.121Z,10.88
2023-05-11T08:24:50.175Z,6.88
2023-05-11T08:29:52.379Z,7.05
2023-05-11T08:34:54.794Z,2.92
2023-05-11T08:39:57.282Z,4.18
2023-05-11T08:45:00.658Z,6.25
2023-05-11T08:50:03.129Z,3.80
2023-05-11T08:55:05.738Z,7.10
2023-05-11T09:00:09.016Z,6.82
2023-05-11T09:05:11.872Z,4.90
2023-05-11T09:10:14.190Z,4.50
2023-05-11T09:15:16.384Z,3.40
2023-05-11T09:20:28.222Z,2.13
2023-05-11T09:25:35.362Z,2.00
2023-05-11T09:30:37.983Z,3.78
2023-05-11T09:35:40.707Z,3.03
2023-05-11T09:40:54.122Z,1.75
2023-05-11T09:45:58.429Z,6.43
2023-05-11T09:51:06.278Z,2.15
2023-05-11T09:56:08.685Z,3.28
2023-05-11T10:01:11.311Z,1.85
2023-05-11T10:06:13.675Z,4.40
2023-05-11T10:11:16.169Z,5.28
2023-05-11T10:16:21.305Z,6.97
2023-05-11T10:21:24.026Z,6.70
2023-05-11T10:26:27.109Z,6.70
2023-05-11T10:31:30.341Z,6.57
2023-05-11T10:36:33.613Z,1.48
2023-05-11T10:41:45.541Z,2.08
2023-05-11T10:47:28.329Z,6.65
2023-05-11T10:52:47.730Z,3.83
2023-05-11T10:58:06.824Z,8.95
2023-05-11T11:03:12.952Z,3.03
2023-05-11T11:08:15.243Z,3.17
2023-05-11T11:13:20.486Z,2.78
2023-05-11T11:18:30.907Z,5.45
2023-05-11T11:23:49.530Z,3.50
2023-05-11T11:28:54.619Z,2.35
2023-05-11T11:33:59.461Z,7.38
2023-05-11T11:39:04.291Z,4.03
2023-05-11T11:44:22.255Z,2.00
2023-05-11T11:49:28.063Z,5.20
2023-05-11T11:54:48.238Z,3.85
2023-05-11T11:59:50.546Z,6.20
2023-05-11T12:05:19.198Z,4.50
2023-05-11T12:10:23.534Z,7.57
2023-05-11T12:15:35.178Z,6.15
2023-05-11T12:20:37.525Z,3.63
2023-05-11T12:25:39.851Z,11.68
2023-05-11T12:30:42.360Z,5.70
2023-05-11T12:35:44.829Z,4.72
2023-05-11T12:40:51.699Z,6.90
2023-05-11T12:45:54.181Z,4.53
2023-05-11T12:50:57.287Z,3.88
2023-05-11T12:56:00.426Z,7.47
2023-05-11T13:01:02.901Z,6.25
2023-05-11T13:06:09.824Z,4.13
2023-05-11T13:11:23.013Z,6.22
2023-05-11T13:16:33.025Z,6.40
2023-05-11T13:21:35.331Z,3.65
2023-05-11T13:26:37.871Z,8.82
2023-05-11T13:31:47.687Z,5.18
2023-05-11T13:36:50.355Z,4.22
2023-05-11T13:41:55.044Z,5.05
2023-05-11T13:46:58.202Z,6.68
2023-05-11T13:52:00.982Z,7.63
2023-05-11T13:57:03.439Z,8.10
2023-05-11T14:02:06.011Z,6.13
2023-05-11T14:07:08.389Z,5.45
2023-05-11T14:12:11.055Z,4.72
2023-05-11T14:17:16.172Z,6.13
2023-05-11T14:22:18.408Z,5.70
2023-05-11T14:27:20.595Z,5.55
2023-05-11T14:32:22.846Z,6.75
2023-05-11T14:37:25.051Z,9.48
2023-05-11T14:42:27.445Z,8.48
2023-05-11T14:47:29.880Z,6.82
2023-05-11T14:52:32.257Z,6.68
2023-05-11T14:57:34.548Z,4.70
2023-05-11T15:02:36.925Z,9.02
2023-05-11T15:07:39.773Z,5.47
2023-05-11T15:12:41.984Z,5.28
2023-05-11T15:17:44.344Z,10.43
2023-05-11T15:22:48.063Z,6.75
2023-05-11T15:27:50.396Z,5.95
2023-05-11T15:32:52.691Z,5.90
2023-05-11T15:37:54.962Z,9.30
2023-05-11T15:42:58.731Z,7.15
2023-05-11T15:48:01.785Z,6.13
2023-05-11T15:53:04.213Z,9.10
2023-05-11T15:58:09.736Z,5.18
2023-05-11T16:03:12.235Z,7.85
2023-05-11T16:08:15.030Z,6.32
2023-05-11T16:13:17.402Z,8.15
2023-05-11T16:18:20.349Z,10.50
2023-05-11T16:23:22.792Z,9.75
2023-05-11T16:28:25.692Z,13.23
2023-05-11T16:33:27.924Z,8.15
2023-05-11T16:38:30.102Z,8.00
2023-05-11T16:43:33.802Z,6.68
2023-05-11T16:48:36.415Z,8.88
2023-05-11T16:53:38.706Z,4.85
2023-05-11T16:58:41.591Z,9.13
2023-05-11T17:03:44.179Z,11.07
2023-05-11T17:08:46.499Z,10.98
2023-05-11T17:13:48.794Z,11.40
2023-05-11T17:18:51.563Z,9.70
2023-05-11T17:23:53.808Z,9.70
2023-05-11T17:28:56.125Z,6.90
2023-05-11T17:33:58.571Z,9.82
2023-05-11T17:39:01.718Z,12.40
2023-05-11T17:44:04.830Z,9.60
2023-05-11T17:49:08.545Z,12.38
2023-05-11T17:54:11.623Z,10.00
2023-05-11T17:59:13.883Z,8.80
2023-05-11T18:04:16.280Z,7.07
2023-05-11T18:09:19.990Z,8.60
2023-05-11T18:14:22.259Z,12.90
2023-05-11T18:19:24.539Z,9.40
2023-05-11T18:24:27.416Z,8.35
2023-05-11T18:29:29.826Z,7.38
2023-05-11T18:34:32.208Z,8.52
2023-05-11T18:39:34.493Z,13.95
2023-05-11T18:44:36.749Z,12.40
2023-05-11T18:49:39.547Z,8.25
2023-05-11T18:54:42.083Z,11.18
2023-05-11T18:59:45.368Z,12.55
2023-05-11T19:04:47.549Z,9.02
2023-05-11T19:09:49.845Z,9.85
2023-05-11T19:14:55.844Z,8.60
2023-05-11T19:19:58.132Z,5.32
2023-05-11T19:25:01.389Z,6.60
2023-05-11T19:30:04.941Z,7.65
2023-05-11T19:35:07.384Z,10.65
2023-05-11T19:40:37.406Z,7.60
2023-05-11T19:45:33.567Z,7.47
2023-05-11T19:50:35.935Z,7.97
2023-05-11T19:55:40.197Z,7.07
2023-05-11T20:00:43.217Z,10.25
2023-05-11T20:05:45.941Z,14.80
2023-05-11T20:10:48.553Z,14.70
2023-05-11T20:15:51.131Z,9.50
2023-05-11T20:20:53.381Z,7.50
2023-05-11T20:25:55.554Z,10.82
2023-05-11T20:30:57.773Z,11.00
2023-05-11T20:36:00.644Z,9.48
2023-05-11T20:41:02.825Z,10.02
2023-05-11T20:46:05.938Z,8.40
2023-05-11T20:51:08.225Z,9.23
2023-05-11T20:56:13.040Z,7.40
2023-05-11T21:01:15.538Z,9.85
2023-05-11T21:06:17.999Z,11.55
2023-05-11T21:11:20.296Z,9.82
2023-05-11T21:16:22.812Z,9.20
2023-05-11T21:21:25.652Z,7.15
2023-05-11T21:26:27.875Z,9.27
2023-05-11T21:31:30.192Z,7.97
2023-05-11T21:36:32.566Z,8.02
2023-05-11T21:41:34.810Z,7.15
2023-05-11T21:46:37.088Z,9.57
2023-05-11T21:51:39.491Z,12.30
2023-05-11T21:56:42.222Z,9.93
2023-05-11T22:01:45.133Z,11.65
2023-05-11T22:06:47.308Z,12.43
2023-05-11T22:11:49.574Z,11.35
2023-05-11T22:16:52.489Z,11.70
2023-05-11T22:21:54.684Z,9.23
2023-05-11T22:26:56.871Z,11.00
2023-05-11T22:31:59.145Z,17.27
2023-05-11T22:37:01.984Z,10.80
2023-05-11T22:42:04.329Z,11.10
2023-05-11T22:47:06.836Z,8.85
2023-05-11T22:52:09.048Z,16.25
2023-05-11T22:57:13.937Z,10.52
2023-05-11T23:02:16.179Z,11.02
2023-05-11T23:07:19.290Z,13.35
2023-05-11T23:12:21.748Z,11.10
2023-05-11T23:17:24.110Z,10.68
2023-05-11T23:22:26.487Z,12.50
2023-05-11T23:27:29.059Z,15.82
2023-05-11T23:32:31.530Z,8.63
2023-05-11T23:37:33.975Z,7.85
2023-05-11T23:42:36.293Z,13.70
2023-05-11T23:47:38.625Z,15.40
2023-05-11T23:52:40.972Z,17.63
2023-05-11T23:57:44.159Z,12.70
